Main page
METAR-TAF:

METAR-TAF

Airports :

Culdrose, England

RNAS Culdrose (HMS Seahawk)

latitude: 50-05N, longitude: 005-15W, elevation: 78 m

Current weather observation

The report was made 59 minutes ago, at 16:50 UTC
Wind 10 kt from the West/Southwest
Temperature 11°C
Humidity 66%
Pressure 1018 hPa
Visibility 10 km or more

METAR: EGDR 281650Z AUTO 24010KT 9999 // BKN042/// 11/05 Q1018

Time: 18:49 (17:49 UTC)

Forecast

The report was made 7 hours and 1 minutes ago, at 10:48 UTC
Forecast valid from 28 at 12 UTC to 28 at 21 UTC
Wind 8 kt from the North/Northwest
Visibility 10 km or more
Few clouds at a height of 2000 ft
Broken clouds at a height of 4500 ft
Becoming
from 28 at 12 UTC to 28 at 14 UTC
Wind 8 kt from the West
Becoming
from 28 at 18 UTC to 28 at 21 UTC
Wind 5 kt from variable directions
Scattered clouds at a height of 2500 ft

TAF: EGDR 281048Z 2812/2821 33008KT 9999 FEW020 BKN045 BECMG 2812/2814 27008KT BECMG 2818/2821 VRB05KT SCT025

Weather observations and forecasts of more than 4000 airports (METAR and TAF reports).

The available stations are represented by yellow and red dots on the map.

Hover mouse over dot to see the name of the station.

Then click to see weather observations and forecasts.

To change the map : click on the green buttons with a black cross to zoom in, on the green button with a dash to zoom out, or on the green arrows for adjacent maps.


METAR-TAF: